Time;durP1;ratioP1;P1;durP2;ratioP2;P2;SDS_P1;SDS_P2;PMS_P1;PMS_P2;Temp;Humidity;BMP_temperature;BMP_pressure;BME280_temperature;BME280_humidity;BME280_pressure;Samples;Min_cycle;Max_cycle;Signal;HPM_P1;HPM_P2
2022/06/05 00:00:28;;;;;;;;;;;;;;;22.01;45.96;101700.22;4957390;28;5315;-61
2022/06/05 00:03:03;;;;;;;;;;;;;;;22.03;46.05;101705.34;4955595;28;4183;-61
2022/06/05 00:05:31;;;;;;;;;;;;;;;22.03;46.12;101708.22;4959082;28;4084;-61
2022/06/05 00:08:12;;;;;;;;;;;;;;;22.02;46.12;101693.06;4953512;28;4263;-61
2022/06/05 00:10:55;;;;;;;;;;;;;;;22.02;45.94;101698.84;4950839;28;4260;-61
2022/06/05 00:13:37;;;;;;;;;;;;;;;22.02;46.19;101703.88;4957186;28;4070;-61
2022/06/05 00:16:04;;;;;;;;;;;;;;;22.00;46.13;101707.38;4957749;28;4282;-61
2022/06/05 00:18:31;;;;;;;;;;;;;;;22.00;45.99;101695.84;4953782;28;5333;-61
2022/06/05 00:20:58;;;;;;;;;;;;;;;21.99;46.16;101705.91;4959624;28;4977;-61
2022/06/05 00:23:24;;;;;;;;;;;;;;;21.99;46.29;101705.91;4961237;28;3969;-61
2022/06/05 00:26:11;;;;;;;;;;;;;;;21.98;46.22;101704.38;4964438;28;5456;-63
2022/06/05 00:28:38;;;;;;;;;;;;;;;21.99;46.28;101699.34;4943431;28;4233;-60
2022/06/05 00:31:09;;;;;;;;;;;;;;;21.97;45.91;101697.13;4950994;28;4238;-60
2022/06/05 00:33:36;;;;;;;;;;;;;;;21.98;46.01;101697.88;4953248;28;5270;-60
2022/06/05 00:36:13;;;;;;;;;;;;;;;22.00;45.96;101701.59;4956280;28;4230;-61
2022/06/05 00:38:54;;;;;;;;;;;;;;;21.97;46.01;101702.91;4953528;28;4433;-61
2022/06/05 00:41:31;;;;;;;;;;;;;;;21.97;46.25;101702.91;4957873;28;4077;-61
2022/06/05 00:43:58;;;;;;;;;;;;;;;21.98;46.24;101698.63;4960983;28;5367;-61
2022/06/05 00:46:24;;;;;;;;;;;;;;;21.98;46.18;101707.28;4958501;28;4176;-61
2022/06/05 00:48:50;;;;;;;;;;;;;;;21.97;46.18;101708.66;4946528;28;5510;-61
2022/06/05 00:51:17;;;;;;;;;;;;;;;21.96;45.96;101695.63;4954698;28;4202;-61
2022/06/05 00:53:44;;;;;;;;;;;;;;;21.95;45.94;101694.88;4960987;28;5261;-61
2022/06/05 00:56:10;;;;;;;;;;;;;;;21.96;46.20;101696.38;4951890;28;4217;-61
2022/06/05 00:58:36;;;;;;;;;;;;;;;21.97;46.20;101694.25;4953599;28;5543;-61
2022/06/05 01:01:03;;;;;;;;;;;;;;;21.96;46.07;101692.75;4954722;28;4515;-61
2022/06/05 01:03:29;;;;;;;;;;;;;;;21.97;46.25;101691.38;4963937;28;4152;-61
2022/06/05 01:05:56;;;;;;;;;;;;;;;21.96;46.18;101698.50;4949294;28;5294;-62
2022/06/05 01:08:22;;;;;;;;;;;;;;;21.98;46.20;101683.44;4959133;28;4300;-61
2022/06/05 01:10:48;;;;;;;;;;;;;;;21.96;46.29;101695.63;4957951;28;4234;-61
2022/06/05 01:13:23;;;;;;;;;;;;;;;21.95;45.93;101694.88;4955991;28;4248;-61
2022/06/05 01:16:08;;;;;;;;;;;;;;;21.94;46.07;101699.16;4957140;28;4438;-61
2022/06/05 01:18:37;;;;;;;;;;;;;;;21.94;46.19;101699.16;4958251;28;4232;-61
2022/06/05 01:21:09;;;;;;;;;;;;;;;21.95;46.15;101700.66;4961530;28;4556;-61
2022/06/05 01:23:39;;;;;;;;;;;;;;;21.95;46.19;101702.78;4957626;28;4439;-61
2022/06/05 01:26:19;;;;;;;;;;;;;;;21.96;46.04;101695.63;4951125;28;4540;-61
2022/06/05 01:28:56;;;;;;;;;;;;;;;21.93;46.08;101702.69;4952777;28;4369;-61
2022/06/05 01:31:25;;;;;;;;;;;;;;;21.95;46.24;101694.13;4948332;28;4603;-61
2022/06/05 01:33:54;;;;;;;;;;;;;;;21.93;46.11;101703.41;4948793;28;4279;-61
2022/06/05 01:36:27;;;;;;;;;;;;;;;21.93;46.10;101700.53;4947241;28;4813;-61
2022/06/05 01:38:55;;;;;;;;;;;;;;;21.93;46.17;101697.66;4949235;28;4102;-61
2022/06/05 01:41:26;;;;;;;;;;;;;;;21.94;46.17;101695.50;4954748;28;4451;-61
2022/06/05 01:43:52;;;;;;;;;;;;;;;21.94;46.02;101692.63;4952767;28;4522;-61
2022/06/05 01:46:48;;;;;;;;;;;;;;;21.93;46.13;101697.66;4962908;28;4273;-61
2022/06/05 01:49:17;;;;;;;;;;;;;;;21.92;46.21;101687.53;4953270;28;4237;-61
2022/06/05 01:51:46;;;;;;;;;;;;;;;21.93;46.32;101691.13;4954734;28;4286;-61
2022/06/05 01:54:15;;;;;;;;;;;;;;;21.93;46.33;101688.25;4952138;28;4207;-61
2022/06/05 01:56:43;;;;;;;;;;;;;;;21.92;46.07;101675.22;4952918;28;4431;-61
2022/06/05 01:59:21;;;;;;;;;;;;;;;21.91;46.35;101683.13;4952494;28;5383;-61
2022/06/05 02:01:48;;;;;;;;;;;;;;;21.91;46.17;101676.63;4951002;28;5273;-61
2022/06/05 02:04:22;;;;;;;;;;;;;;;21.92;46.31;101680.97;4951111;28;4300;-61
2022/06/05 02:06:50;;;;;;;;;;;;;;;21.93;46.25;101685.38;4947104;28;4216;-61
2022/06/05 02:09:18;;;;;;;;;;;;;;;21.92;46.19;101684.63;4956190;28;4319;-61
2022/06/05 02:11:44;;;;;;;;;;;;;;;21.92;46.24;101683.88;4953066;28;4541;-61
2022/06/05 02:14:11;;;;;;;;;;;;;;;21.90;46.29;101675.88;4958940;28;4324;-61
2022/06/05 02:16:38;;;;;;;;;;;;;;;21.90;46.25;101657.84;4952007;28;4401;-61
2022/06/05 02:19:09;;;;;;;;;;;;;;;21.90;45.87;101667.22;4952417;28;5563;-61
2022/06/05 02:21:37;;;;;;;;;;;;;;;21.90;46.24;101670.09;4952855;28;4412;-61
2022/06/05 02:24:04;;;;;;;;;;;;;;;21.91;46.13;101665.06;4953903;28;4190;-61
2022/06/05 02:26:30;;;;;;;;;;;;;;;21.90;46.29;101666.47;4961074;28;4121;-61
2022/06/05 02:28:57;;;;;;;;;;;;;;;21.89;46.20;101659.19;4956401;28;4263;-61
2022/06/05 02:31:26;;;;;;;;;;;;;;;21.89;46.18;101656.31;4950032;28;4440;-61
2022/06/05 02:34:08;;;;;;;;;;;;;;;21.88;46.19;101657.72;4957749;28;4191;-62
2022/06/05 02:36:48;;;;;;;;;;;;;;;21.89;46.16;101662.09;4952823;28;6389;-61
2022/06/05 02:39:32;;;;;;;;;;;;;;;21.85;46.28;101653.22;4953504;28;4190;-61
2022/06/05 02:42:11;;;;;;;;;;;;;;;21.88;46.13;101660.59;4956451;28;4188;-61
2022/06/05 02:44:54;;;;;;;;;;;;;;;21.87;46.14;101659.84;4953296;28;4247;-61
2022/06/05 02:47:23;;;;;;;;;;;;;;;21.86;46.06;101660.50;4950479;28;5223;-61
2022/06/05 02:50:08;;;;;;;;;;;;;;;21.89;46.20;101662.09;4950804;28;4236;-61
2022/06/05 02:52:35;;;;;;;;;;;;;;;21.88;46.27;101664.22;4956735;28;4236;-60
2022/06/05 02:55:06;;;;;;;;;;;;;;;21.87;46.18;101664.84;4949559;28;4157;-60
2022/06/05 02:57:32;;;;;;;;;;;;;;;21.86;46.31;101658.34;4946661;28;5506;-60
2022/06/05 02:59:58;;;;;;;;;;;;;;;21.85;46.16;101650.34;4952087;28;4614;-60
2022/06/05 03:05:10;;;;;;;;;;;;;;;21.83;46.27;101639.47;4955822;28;4360;-60
2022/06/05 03:07:36;;;;;;;;;;;;;;;21.83;46.03;101647.34;4961136;28;5321;-60
2022/06/05 03:10:03;;;;;;;;;;;;;;;21.83;46.30;101644.44;4955759;28;4210;-61
2022/06/05 03:12:29;;;;;;;;;;;;;;;21.82;46.28;101651.63;4953421;28;4267;-60
2022/06/05 03:15:00;;;;;;;;;;;;;;;21.83;46.31;101653.09;4956298;28;4318;-61
2022/06/05 03:17:28;;;;;;;;;;;;;;;21.83;46.11;101664.63;4961307;28;3985;-60
2022/06/05 03:19:54;;;;;;;;;;;;;;;21.82;46.20;101663.91;4950946;28;4196;-60
2022/06/05 03:22:21;;;;;;;;;;;;;;;21.81;46.35;101653.75;4956944;28;4234;-61
2022/06/05 03:24:47;;;;;;;;;;;;;;;21.81;46.29;101655.91;4950809;28;5489;-61
2022/06/05 03:27:13;;;;;;;;;;;;;;;21.80;46.13;101648.63;4955999;28;4283;-61
2022/06/05 03:29:40;;;;;;;;;;;;;;;21.81;46.08;101656.66;4959189;28;4204;-61
2022/06/05 03:32:06;;;;;;;;;;;;;;;21.82;46.26;101668.91;4958599;28;5292;-57
2022/06/05 03:34:33;;;;;;;;;;;;;;;21.73;45.25;101673.50;4957164;28;4544;-63
2022/06/05 03:36:59;;;;;;;;;;;;;;;21.46;44.25;101665.56;4952870;28;5607;-63
2022/06/05 03:39:26;;;;;;;;;;;;;;;21.30;43.72;101669.03;4955091;28;4161;-63
2022/06/05 03:41:52;;;;;;;;;;;;;;;21.21;43.38;101663.44;4962990;28;4147;-64
2022/06/05 03:44:19;;;;;;;;;;;;;;;21.11;43.02;101666.50;4965853;28;3998;-63
2022/06/05 03:46:45;;;;;;;;;;;;;;;21.11;42.71;101663.63;4958560;28;4245;-63
2022/06/05 03:49:11;;;;;;;;;;;;;;;21.08;42.60;101653.38;4960726;28;4117;-63
2022/06/05 03:51:38;;;;;;;;;;;;;;;20.98;42.31;101649.91;4960740;28;4287;-63
2022/06/05 03:54:04;;;;;;;;;;;;;;;20.99;42.40;101652.16;4964800;28;4244;-63
2022/06/05 03:56:30;;;;;;;;;;;;;;;20.96;42.37;101646.91;4960705;28;4116;-63
2022/06/05 03:58:57;;;;;;;;;;;;;;;20.87;42.28;101651.50;4959514;28;4093;-63
2022/06/05 04:01:23;;;;;;;;;;;;;;;20.84;42.14;101650.59;4956015;28;4221;-63
2022/06/05 04:03:50;;;;;;;;;;;;;;;20.84;42.26;101661.38;4964696;28;4044;-64
2022/06/05 04:06:18;;;;;;;;;;;;;;;20.81;42.19;101666.28;4961947;28;4167;-63
2022/06/05 04:08:44;;;;;;;;;;;;;;;20.76;42.09;101664.56;4955130;28;5360;-63
2022/06/05 04:11:12;;;;;;;;;;;;;;;20.71;42.22;101657.06;4955366;28;4156;-63
2022/06/05 04:13:38;;;;;;;;;;;;;;;20.64;42.20;101661.72;4958591;28;4187;-63
2022/06/05 04:16:12;;;;;;;;;;;;;;;20.66;42.36;101652.44;4956043;28;4238;-63
2022/06/05 04:18:38;;;;;;;;;;;;;;;20.64;42.46;101660.97;4964351;28;5410;-63
2022/06/05 04:21:23;;;;;;;;;;;;;;;20.56;42.60;101651.84;4961032;28;4184;-63
2022/06/05 04:23:50;;;;;;;;;;;;;;;20.51;42.75;101651.59;4960333;28;5469;-63
2022/06/05 04:26:18;;;;;;;;;;;;;;;20.49;42.83;101648.59;4961433;28;4084;-63
2022/06/05 04:28:44;;;;;;;;;;;;;;;20.50;42.90;101655.84;4963265;28;4259;-63
2022/06/05 04:31:40;;;;;;;;;;;;;;;20.51;42.98;101645.84;4958837;28;4542;-63
2022/06/05 04:34:08;;;;;;;;;;;;;;;20.44;43.28;101644.00;4942572;28;5268;-63
2022/06/05 04:36:34;;;;;;;;;;;;;;;20.46;43.58;101641.22;4958542;28;4283;-63
2022/06/05 04:39:00;;;;;;;;;;;;;;;20.40;43.94;101638.00;4955929;28;4055;-63
2022/06/05 04:41:27;;;;;;;;;;;;;;;20.32;44.12;101617.41;4964016;28;4053;-63
2022/06/05 04:43:53;;;;;;;;;;;;;;;20.35;44.57;101615.38;4956469;28;4254;-64
2022/06/05 04:46:20;;;;;;;;;;;;;;;20.38;44.73;101614.13;4954877;28;4075;-63
2022/06/05 04:48:47;;;;;;;;;;;;;;;20.37;44.96;101613.38;4957585;28;5432;-63
2022/06/05 04:51:13;;;;;;;;;;;;;;;20.38;45.27;101614.84;4960537;28;4269;-63
2022/06/05 04:53:40;;;;;;;;;;;;;;;20.39;45.41;101616.38;4955953;28;4200;-63
2022/06/05 04:56:08;;;;;;;;;;;;;;;20.39;45.81;101619.25;4956623;28;4369;-63
2022/06/05 04:58:34;;;;;;;;;;;;;;;20.42;45.88;101620.09;4958468;28;4418;-63
2022/06/05 05:01:00;;;;;;;;;;;;;;;20.41;45.96;101630.88;4958854;28;4218;-63
2022/06/05 05:03:27;;;;;;;;;;;;;;;20.41;46.00;101624.34;4963570;28;5301;-63
2022/06/05 05:05:53;;;;;;;;;;;;;;;20.40;46.23;101617.09;4961860;28;5056;-63
2022/06/05 05:08:20;;;;;;;;;;;;;;;20.40;46.27;101600.59;4952462;28;4210;-64
2022/06/05 05:10:46;;;;;;;;;;;;;;;20.41;46.36;101599.22;4963797;28;4165;-64
2022/06/05 05:13:13;;;;;;;;;;;;;;;20.42;46.50;101597.84;4964606;28;4086;-63
2022/06/05 05:15:39;;;;;;;;;;;;;;;20.41;46.61;101613.63;4954620;28;4173;-63
2022/06/05 05:18:06;;;;;;;;;;;;;;;20.40;46.77;101623.59;4958028;28;4119;-63
2022/06/05 05:20:33;;;;;;;;;;;;;;;20.41;46.73;101630.09;4960253;28;4250;-64
2022/06/05 05:22:59;;;;;;;;;;;;;;;20.40;46.76;101605.59;4959984;28;5543;-63
2022/06/05 05:25:25;;;;;;;;;;;;;;;20.40;46.87;101606.34;4962217;28;4082;-63
2022/06/05 05:27:52;;;;;;;;;;;;;;;20.41;46.81;101590.59;4953978;28;4219;-63
2022/06/05 05:30:18;;;;;;;;;;;;;;;20.43;46.81;101590.72;4947723;28;4279;-63
2022/06/05 05:32:44;;;;;;;;;;;;;;;20.44;46.82;101586.44;4952104;28;4390;-63
2022/06/05 05:35:11;;;;;;;;;;;;;;;20.44;46.92;101588.59;4960853;28;4273;-64
2022/06/05 05:37:37;;;;;;;;;;;;;;;20.43;46.89;101590.72;4956023;28;6516;-63
2022/06/05 05:42:49;;;;;;;;;;;;;;;20.46;46.82;101586.56;4955345;28;4589;-63
2022/06/05 05:45:16;;;;;;;;;;;;;;;20.44;46.63;101586.44;4947988;28;4754;-63
2022/06/05 05:47:42;;;;;;;;;;;;;;;20.47;46.48;101575.81;4960342;28;4547;-63
2022/06/05 05:50:14;;;;;;;;;;;;;;;20.50;46.44;101578.19;4959509;28;4182;-63
2022/06/05 05:52:41;;;;;;;;;;;;;;;20.50;46.27;101569.53;4956080;28;4200;-63
2022/06/05 05:55:10;;;;;;;;;;;;;;;20.49;46.15;101570.91;4955217;28;4294;-63
2022/06/05 05:57:36;;;;;;;;;;;;;;;20.47;46.02;101576.53;4953336;28;4125;-63
2022/06/05 06:00:04;;;;;;;;;;;;;;;20.48;45.83;101572.31;4953693;28;4922;-63
2022/06/05 06:02:31;;;;;;;;;;;;;;;20.48;45.81;101572.31;4957990;28;4168;-63
2022/06/05 06:04:57;;;;;;;;;;;;;;;20.46;45.83;101577.94;4954188;28;5436;-63
2022/06/05 06:07:24;;;;;;;;;;;;;;;20.48;45.68;101578.06;4958673;28;4269;-64
2022/06/05 06:09:50;;;;;;;;;;;;;;;20.48;45.48;101583.81;4953092;28;4259;-64
2022/06/05 06:12:21;;;;;;;;;;;;;;;20.48;45.54;101583.81;4959876;28;4474;-63
2022/06/05 06:14:48;;;;;;;;;;;;;;;20.48;45.43;101578.06;4954767;28;4202;-64
2022/06/05 06:17:14;;;;;;;;;;;;;;;20.51;45.30;101576.03;4955447;28;6229;-63
2022/06/05 06:19:40;;;;;;;;;;;;;;;20.51;45.38;101570.28;4955734;28;4260;-63
2022/06/05 06:22:07;;;;;;;;;;;;;;;20.53;45.27;101579.03;4960786;28;5309;-63
2022/06/05 06:24:33;;;;;;;;;;;;;;;20.54;45.05;101585.53;4958562;28;4255;-63
2022/06/05 06:27:00;;;;;;;;;;;;;;;20.54;45.16;101579.78;4954101;28;4233;-63
2022/06/05 06:29:26;;;;;;;;;;;;;;;20.56;45.12;101586.41;4954023;28;4188;-63
2022/06/05 06:31:52;;;;;;;;;;;;;;;20.57;45.05;101575.66;4956532;28;4387;-63
2022/06/05 06:34:19;;;;;;;;;;;;;;;20.57;45.11;101579.31;4957464;28;4219;-63
2022/06/05 06:36:45;;;;;;;;;;;;;;;20.58;45.25;101574.28;4954739;28;5483;-63
2022/06/05 06:39:16;;;;;;;;;;;;;;;20.58;45.37;101577.91;4950250;28;4215;-63
2022/06/05 06:41:43;;;;;;;;;;;;;;;20.58;45.35;101574.28;4950481;28;4392;-63
2022/06/05 06:44:09;;;;;;;;;;;;;;;20.59;45.38;101579.44;4958868;28;4228;-63
2022/06/05 06:46:36;;;;;;;;;;;;;;;20.60;45.46;101588.78;4953440;28;5279;-63
2022/06/05 06:49:03;;;;;;;;;;;;;;;20.62;45.38;101583.16;4944050;28;4180;-62
2022/06/05 06:51:29;;;;;;;;;;;;;;;20.58;45.40;101571.41;4951852;28;5329;-63
2022/06/05 06:53:55;;;;;;;;;;;;;;;20.59;45.51;101572.91;4956857;28;4246;-63
2022/06/05 06:56:23;;;;;;;;;;;;;;;20.61;45.54;101579.50;4957907;28;5302;-63
2022/06/05 06:58:52;;;;;;;;;;;;;;;20.61;45.52;101573.00;4952119;28;5438;-63
2022/06/05 07:01:18;;;;;;;;;;;;;;;20.60;45.63;101566.53;4953815;28;5595;-62
2022/06/05 07:03:45;;;;;;;;;;;;;;;20.62;45.71;101563.00;4948017;28;4225;-63
2022/06/05 07:06:12;;;;;;;;;;;;;;;20.62;45.75;101569.50;4955436;28;5175;-63
2022/06/05 07:08:38;;;;;;;;;;;;;;;20.62;45.82;101569.50;4953913;28;4538;-62
2022/06/05 07:11:05;;;;;;;;;;;;;;;20.68;45.84;101560.47;4944524;28;4210;-63
2022/06/05 07:13:32;;;;;;;;;;;;;;;20.71;45.94;101559.22;4954323;28;4074;-61
2022/06/05 07:15:58;;;;;;;;;;;;;;;20.69;45.92;101556.22;4958277;28;5438;-60
2022/06/05 07:18:24;;;;;;;;;;;;;;;20.73;45.95;101547.81;4962209;28;4240;-59
2022/06/05 07:20:51;;;;;;;;;;;;;;;20.78;45.92;101546.66;4960603;28;4197;-61
2022/06/05 07:23:17;;;;;;;;;;;;;;;20.82;45.77;101535.38;4954909;28;4179;-61
2022/06/05 07:25:45;;;;;;;;;;;;;;;20.87;45.73;101531.31;4948376;28;4307;-59
2022/06/05 07:28:11;;;;;;;;;;;;;;;20.91;45.83;101537.31;4951923;28;4865;-61
2022/06/05 07:30:37;;;;;;;;;;;;;;;20.91;45.88;101516.38;4959666;28;4098;-60
2022/06/05 07:33:04;;;;;;;;;;;;;;;20.92;45.84;101529.41;4958965;28;4697;-60
2022/06/05 07:35:30;;;;;;;;;;;;;;;20.92;45.85;101521.53;4957452;28;4381;-60
2022/06/05 07:37:56;;;;;;;;;;;;;;;20.93;45.88;101517.25;4953620;28;4126;-60
2022/06/05 07:40:40;;;;;;;;;;;;;;;20.77;45.57;101518.50;4958324;28;4200;-64
2022/06/05 07:43:07;;;;;;;;;;;;;;;20.72;46.62;101514.66;4959629;28;4187;-65
2022/06/05 07:45:33;;;;;;;;;;;;;;;20.76;46.66;101509.13;4957832;28;4246;-65
2022/06/05 07:47:59;;;;;;;;;;;;;;;20.84;46.42;101509.53;4957010;28;4300;-65
2022/06/05 07:50:26;;;;;;;;;;;;;;;20.88;47.22;101512.66;4960727;28;4273;-65
2022/06/05 07:55:37;;;;;;;;;;;;;;;20.96;47.76;101511.59;4956757;28;4199;-65
2022/06/05 07:58:04;;;;;;;;;;;;;;;20.92;47.42;101504.25;4957672;28;3940;-65
2022/06/05 08:00:31;;;;;;;;;;;;;;;20.91;47.86;101507.75;4958101;28;4182;-65
2022/06/05 08:02:57;;;;;;;;;;;;;;;20.82;47.38;101511.56;4959705;28;4053;-65
2022/06/05 08:05:24;;;;;;;;;;;;;;;20.82;46.94;101506.59;4957316;28;4200;-65
2022/06/05 08:07:50;;;;;;;;;;;;;;;20.88;46.24;101504.03;4956121;28;6152;-65
2022/06/05 08:10:16;;;;;;;;;;;;;;;20.87;46.58;101498.91;4960605;28;4188;-65
2022/06/05 08:12:44;;;;;;;;;;;;;;;20.95;46.23;101492.84;4961031;28;4248;-65
2022/06/05 08:15:12;;;;;;;;;;;;;;;20.90;46.36;101494.75;4961130;28;4323;-65
2022/06/05 08:17:38;;;;;;;;;;;;;;;20.91;46.54;101485.50;4958766;28;4227;-65
2022/06/05 08:20:05;;;;;;;;;;;;;;;20.97;46.51;101490.06;4961959;28;5108;-65
2022/06/05 08:22:31;;;;;;;;;;;;;;;20.98;46.59;101486.56;4965037;28;4262;-65
2022/06/05 08:24:58;;;;;;;;;;;;;;;21.00;46.55;101477.28;4965467;28;4158;-65
2022/06/05 08:27:25;;;;;;;;;;;;;;;20.99;46.70;101478.66;4959876;28;4160;-65
2022/06/05 08:29:51;;;;;;;;;;;;;;;21.07;46.20;101481.97;4964755;28;4032;-65
2022/06/05 08:32:19;;;;;;;;;;;;;;;21.02;46.03;101480.25;4965469;28;4134;-65
2022/06/05 08:34:45;;;;;;;;;;;;;;;21.11;46.31;101474.28;4962518;28;4193;-67
2022/06/05 08:42:42;;;;;;;;;;;;;;;21.12;46.76;101463.53;4963628;28;4195;-67
2022/06/05 08:45:15;;;;;;;;;;;;;;;21.12;45.81;101466.41;4955734;28;4222;-68
2022/06/05 08:47:45;;;;;;;;;;;;;;;21.15;46.26;101473.03;4951021;28;4072;-67
2022/06/05 08:50:12;;;;;;;;;;;;;;;21.11;46.28;101467.78;4952392;28;4117;-68
2022/06/05 08:52:49;;;;;;;;;;;;;;;21.07;45.61;101461.81;4960322;28;4068;-68
2022/06/05 08:55:25;;;;;;;;;;;;;;;21.13;45.40;101462.16;4955473;28;4406;-68
2022/06/05 08:57:51;;;;;;;;;;;;;;;21.14;45.69;101463.63;4968864;28;4318;-67
2022/06/05 09:00:19;;;;;;;;;;;;;;;21.13;45.58;101459.25;4960089;28;4150;-68
2022/06/05 09:02:48;;;;;;;;;;;;;;;21.13;45.48;101459.25;4960428;28;4331;-68
2022/06/05 09:05:19;;;;;;;;;;;;;;;21.12;45.46;101454.91;4978836;28;4115;-68
2022/06/05 09:07:47;;;;;;;;;;;;;;;21.15;45.56;101450.72;4963726;28;4042;-67
2022/06/05 09:10:16;;;;;;;;;;;;;;;21.17;45.38;101441.47;4950419;28;4067;-67
2022/06/05 09:12:46;;;;;;;;;;;;;;;21.19;45.44;101450.94;4962483;28;4051;-67
2022/06/05 09:15:33;;;;;;;;;;;;;;;21.14;45.61;101443.47;4955297;28;4112;-68
2022/06/05 09:18:00;;;;;;;;;;;;;;;21.15;45.00;101447.84;4957956;28;4388;-68
2022/06/05 09:20:29;;;;;;;;;;;;;;;21.20;44.88;101446.66;4960646;28;5241;-67
2022/06/05 09:22:59;;;;;;;;;;;;;;;21.20;45.23;101446.66;4958802;28;5271;-68
2022/06/05 09:25:40;;;;;;;;;;;;;;;21.21;44.84;101433.78;4958273;28;4197;-67
2022/06/05 09:28:35;;;;;;;;;;;;;;;21.19;45.44;101430.78;4962296;28;4350;-68
2022/06/05 09:31:07;;;;;;;;;;;;;;;21.16;45.67;101432.06;4940886;28;5042;-67
2022/06/05 09:33:34;;;;;;;;;;;;;;;21.15;45.68;101436.34;4955795;28;4238;-68
2022/06/05 09:36:05;;;;;;;;;;;;;;;21.18;45.64;101431.41;4955149;28;4338;-67
2022/06/05 09:38:35;;;;;;;;;;;;;;;21.18;45.80;101432.16;4953227;28;4122;-67
2022/06/05 09:41:11;;;;;;;;;;;;;;;21.18;45.92;101432.16;4959072;28;4210;-67
2022/06/05 09:43:41;;;;;;;;;;;;;;;21.20;45.78;101426.50;4955776;28;4243;-66
2022/06/05 09:46:23;;;;;;;;;;;;;;;21.25;44.94;101427.47;4951972;28;4921;-67
2022/06/05 09:49:02;;;;;;;;;;;;;;;21.27;44.70;101419.66;4958832;28;4297;-67
2022/06/05 09:51:29;;;;;;;;;;;;;;;21.25;45.01;101413.06;4951994;28;4122;-67
2022/06/05 09:53:58;;;;;;;;;;;;;;;21.25;45.65;101425.31;4953270;28;4219;-67
2022/06/05 09:58:24;;;;;;;;;;;;;;;21.24;45.53;101423.09;4954518;28;5550;-67
2022/06/05 09:59:23;;;;;;;;;;;;;;;21.26;45.54;101415.31;4960307;28;4204;-69
2022/06/05 10:01:50;;;;;;;;;;;;;;;21.26;45.91;101414.56;4949810;28;4226;-68
2022/06/05 10:04:18;;;;;;;;;;;;;;;21.28;45.70;101418.31;4954830;28;4225;-68
2022/06/05 10:06:46;;;;;;;;;;;;;;;21.29;45.98;101419.78;4960836;28;4271;-68
2022/06/05 10:09:13;;;;;;;;;;;;;;;21.28;46.33;101401.00;4955053;28;4116;-68
2022/06/05 10:11:57;;;;;;;;;;;;;;;21.27;46.01;101402.38;4951628;28;4274;-68
2022/06/05 10:14:42;;;;;;;;;;;;;;;21.30;46.00;101404.00;4957552;28;4255;-68
2022/06/05 10:17:08;;;;;;;;;;;;;;;21.30;46.15;101386.72;4961841;28;4272;-68
2022/06/05 10:19:47;;;;;;;;;;;;;;;21.33;44.84;101378.91;4955260;28;4264;-68
2022/06/05 10:22:14;;;;;;;;;;;;;;;21.38;45.13;101377.00;4958150;28;4204;-68
2022/06/05 10:25:04;;;;;;;;;;;;;;;21.37;45.18;101366.84;4960368;28;5248;-68
2022/06/05 10:27:31;;;;;;;;;;;;;;;21.40;46.02;101365.56;4948115;28;4174;-68
2022/06/05 10:29:57;;;;;;;;;;;;;;;21.33;46.47;101359.50;4956365;28;5388;-67
2022/06/05 10:32:44;;;;;;;;;;;;;;;21.39;46.17;101358.31;4949380;28;4234;-68
2022/06/05 10:35:13;;;;;;;;;;;;;;;21.38;46.85;101348.19;4954299;28;4157;-67
2022/06/05 10:37:40;;;;;;;;;;;;;;;21.32;46.78;101349.34;4952844;28;4140;-67
2022/06/05 10:40:24;;;;;;;;;;;;;;;21.37;46.79;101349.56;4954286;28;4259;-67
2022/06/05 10:43:01;;;;;;;;;;;;;;;21.34;47.33;101346.56;4955255;28;4105;-67
2022/06/05 10:45:39;;;;;;;;;;;;;;;21.37;46.90;101338.03;4954118;28;4181;-67
2022/06/05 10:48:20;;;;;;;;;;;;;;;21.38;46.71;101328.03;4955833;28;4240;-68
2022/06/05 10:50:52;;;;;;;;;;;;;;;21.34;46.91;101314.16;4973883;28;4178;-68
2022/06/05 10:53:20;;;;;;;;;;;;;;;21.34;47.12;101319.91;4956081;28;5263;-67
2022/06/05 10:56:05;;;;;;;;;;;;;;;21.37;47.02;101307.09;4948795;28;5325;-67
2022/06/05 10:58:39;;;;;;;;;;;;;;;21.43;46.74;101313.19;4955283;28;4164;-68
2022/06/05 11:01:20;;;;;;;;;;;;;;;21.48;46.23;101308.38;4952944;28;4184;-67
2022/06/05 11:03:52;;;;;;;;;;;;;;;21.44;46.90;101314.69;4960173;28;4170;-68
2022/06/05 11:06:31;;;;;;;;;;;;;;;21.48;46.59;101314.13;4959657;28;4328;-67
2022/06/05 11:09:07;;;;;;;;;;;;;;;21.49;47.05;101316.38;4947170;28;5391;-71
2022/06/05 11:14:40;;;;;;;;;;;;;;;21.75;49.77;101316.88;4953663;28;4179;-66
2022/06/05 11:17:25;;;;;;;;;;;;;;;21.76;47.17;101308.97;4954376;28;4220;-66
2022/06/05 11:20:00;;;;;;;;;;;;;;;21.79;46.78;101304.81;4948502;28;5432;-67
2022/06/05 11:22:26;;;;;;;;;;;;;;;21.83;46.85;101299.25;4954659;28;4319;-67
2022/06/05 11:24:55;;;;;;;;;;;;;;;21.89;47.03;101298.78;4962144;28;5329;-67
2022/06/05 11:27:35;;;;;;;;;;;;;;;21.93;47.41;101293.94;4960513;28;4419;-65
2022/06/05 11:30:13;;;;;;;;;;;;;;;21.94;47.44;101278.16;4952169;28;4004;-67
2022/06/05 11:32:51;;;;;;;;;;;;;;;22.04;46.77;101275.00;4959883;28;5409;-68
2022/06/05 11:35:19;;;;;;;;;;;;;;;22.08;47.03;101272.31;4951990;28;5173;-66
2022/06/05 11:38:09;;;;;;;;;;;;;;;22.15;46.64;101247.34;4947506;28;4230;-67
2022/06/05 11:41:05;;;;;;;;;;;;;;;22.30;46.02;101260.31;4950455;28;4072;-61
2022/06/05 11:43:39;;;;;;;;;;;;;;;22.37;45.91;101247.63;4952681;28;4230;-61
2022/06/05 11:46:28;;;;;;;;;;;;;;;22.43;45.79;101233.47;4955258;28;4460;-61
2022/06/05 11:48:57;;;;;;;;;;;;;;;22.49;45.80;101233.00;4960384;28;5307;-61
2022/06/05 11:51:47;;;;;;;;;;;;;;;22.54;45.53;101220.97;4962786;28;4240;-60
2022/06/05 11:54:16;;;;;;;;;;;;;;;22.59;45.50;101213.97;4952138;28;4028;-60
2022/06/05 11:56:54;;;;;;;;;;;;;;;22.62;45.53;101203.25;4956627;28;4243;-59
2022/06/05 11:59:20;;;;;;;;;;;;;;;22.63;45.74;101209.78;4961820;28;4211;-60
2022/06/05 12:01:48;;;;;;;;;;;;;;;22.63;45.54;101204.00;4953800;28;4350;-61
2022/06/05 12:04:19;;;;;;;;;;;;;;;22.55;45.50;101184.94;4960169;28;5582;-64
2022/06/05 12:06:53;;;;;;;;;;;;;;;22.31;46.16;101193.31;4950258;28;4249;-66
2022/06/05 12:09:24;;;;;;;;;;;;;;;22.23;46.54;101192.19;4955635;28;4238;-69
2022/06/05 12:11:58;;;;;;;;;;;;;;;22.13;46.77;101187.44;4953245;28;4248;-61
2022/06/05 12:14:29;;;;;;;;;;;;;;;22.14;46.78;101179.53;4951367;28;4178;-64
2022/06/05 12:17:07;;;;;;;;;;;;;;;22.21;46.45;101174.78;4951518;28;5449;-64
2022/06/05 12:19:33;;;;;;;;;;;;;;;22.20;46.65;101170.41;4946574;28;4100;-63
2022/06/05 12:22:10;;;;;;;;;;;;;;;22.18;46.44;101163.13;4959948;28;5284;-64
2022/06/05 12:24:55;;;;;;;;;;;;;;;22.13;46.43;101170.13;4957839;28;5294;-64
2022/06/05 12:27:22;;;;;;;;;;;;;;;22.08;46.48;101162.72;4955400;28;4324;-64
2022/06/05 12:30:04;;;;;;;;;;;;;;;22.09;46.72;101169.22;4953500;28;5508;-65
2022/06/05 12:32:57;;;;;;;;;;;;;;;22.12;46.60;101154.22;4960669;28;4221;-63
2022/06/05 12:35:28;;;;;;;;;;;;;;;22.13;46.49;101135.53;4956583;28;5459;-64
2022/06/05 12:38:11;;;;;;;;;;;;;;;22.13;46.46;101138.41;4955799;28;4287;-64
2022/06/05 12:40:38;;;;;;;;;;;;;;;22.12;46.38;101136.91;4959206;28;4183;-64
2022/06/05 12:43:07;;;;;;;;;;;;;;;22.13;46.47;101131.91;4951347;28;5280;-64
2022/06/05 12:45:35;;;;;;;;;;;;;;;22.11;46.51;101132.56;4959347;28;4249;-64
2022/06/05 12:48:08;;;;;;;;;;;;;;;22.11;46.50;101118.13;4955245;28;4241;-64
2022/06/05 12:50:35;;;;;;;;;;;;;;;22.12;46.38;101125.38;4954852;28;4244;-64
2022/06/05 12:53:04;;;;;;;;;;;;;;;22.10;46.62;101128.16;4958019;28;5509;-64
2022/06/05 12:55:37;;;;;;;;;;;;;;;22.10;46.61;101122.41;4960801;28;4196;-64
2022/06/05 12:58:03;;;;;;;;;;;;;;;22.08;46.80;101113.69;4958409;28;6610;-64
2022/06/05 13:00:37;;;;;;;;;;;;;;;22.10;46.47;101110.84;4957956;28;4185;-64
2022/06/05 13:03:18;;;;;;;;;;;;;;;22.09;46.68;101109.38;4950918;28;4417;-64
2022/06/05 13:05:53;;;;;;;;;;;;;;;22.09;46.65;101102.88;4952953;28;4232;-64
2022/06/05 13:08:30;;;;;;;;;;;;;;;22.08;46.82;101102.16;4959244;28;4432;-64
2022/06/05 13:11:07;;;;;;;;;;;;;;;22.08;46.81;101099.25;4954130;28;4263;-65
2022/06/05 13:13:35;;;;;;;;;;;;;;;22.08;46.65;101102.16;4953278;28;4965;-64
2022/06/05 13:16:03;;;;;;;;;;;;;;;22.07;46.59;101094.88;4953324;28;5516;-64
2022/06/05 13:18:40;;;;;;;;;;;;;;;22.08;46.68;101084.06;4960508;28;4315;-64
2022/06/05 13:21:16;;;;;;;;;;;;;;;22.08;46.79;101084.06;4949294;28;4207;-64